sensor_id;sensor_type;location;lat;lon;timestamp;pressure;altitude;pressure_sealevel;temperature;humidity
73748;BME280;62056;52.130;5.428;2023-04-06T00:01:59;102083.09;;;5.07;53.92
73748;BME280;62056;52.130;5.428;2023-04-06T00:04:25;102083.75;;;5.02;54.26
73748;BME280;62056;52.130;5.428;2023-04-06T00:06:53;102081.16;;;4.96;54.53
73748;BME280;62056;52.130;5.428;2023-04-06T00:09:20;102075.97;;;4.89;55.14
73748;BME280;62056;52.130;5.428;2023-04-06T00:11:46;102085.91;;;4.87;54.84
73748;BME280;62056;52.130;5.428;2023-04-06T00:14:13;102076.25;;;4.81;54.62
73748;BME280;62056;52.130;5.428;2023-04-06T00:16:40;102084.00;;;4.76;54.77
73748;BME280;62056;52.130;5.428;2023-04-06T00:19:07;102079.53;;;4.76;54.45
73748;BME280;62056;52.130;5.428;2023-04-06T00:21:34;102073.25;;;4.77;55.36
73748;BME280;62056;52.130;5.428;2023-04-06T00:24:28;102071.63;;;4.76;54.73
73748;BME280;62056;52.130;5.428;2023-04-06T00:26:54;102072.06;;;4.73;55.56
73748;BME280;62056;52.130;5.428;2023-04-06T00:29:21;102066.41;;;4.70;55.80
73748;BME280;62056;52.130;5.428;2023-04-06T00:31:48;102063.19;;;4.68;55.09
73748;BME280;62056;52.130;5.428;2023-04-06T00:34:42;102058.34;;;4.64;55.16
73748;BME280;62056;52.130;5.428;2023-04-06T00:37:10;102050.09;;;4.61;55.14
73748;BME280;62056;52.130;5.428;2023-04-06T00:39:36;102053.97;;;4.58;55.21
73748;BME280;62056;52.130;5.428;2023-04-06T00:42:10;102056.22;;;4.55;55.90
73748;BME280;62056;52.130;5.428;2023-04-06T00:44:41;102049.56;;;4.52;56.81
73748;BME280;62056;52.130;5.428;2023-04-06T00:47:08;102047.13;;;4.51;56.58
73748;BME280;62056;52.130;5.428;2023-04-06T00:49:35;102042.06;;;4.49;55.40
73748;BME280;62056;52.130;5.428;2023-04-06T00:52:02;102037.84;;;4.48;55.86
73748;BME280;62056;52.130;5.428;2023-04-06T00:54:30;102036.41;;;4.45;53.83
73748;BME280;62056;52.130;5.428;2023-04-06T00:56:57;102034.81;;;4.44;55.31
73748;BME280;62056;52.130;5.428;2023-04-06T00:59:24;102032.84;;;4.40;56.24
73748;BME280;62056;52.130;5.428;2023-04-06T01:01:51;102035.47;;;4.40;55.99
73748;BME280;62056;52.130;5.428;2023-04-06T01:04:18;102029.63;;;4.38;55.33
73748;BME280;62056;52.130;5.428;2023-04-06T01:06:45;102035.88;;;4.37;56.30
73748;BME280;62056;52.130;5.428;2023-04-06T01:09:12;102019.69;;;4.33;56.61
73748;BME280;62056;52.130;5.428;2023-04-06T01:11:39;102027.84;;;4.32;56.86
73748;BME280;62056;52.130;5.428;2023-04-06T01:14:05;102017.06;;;4.33;56.63
73748;BME280;62056;52.130;5.428;2023-04-06T01:16:33;102019.50;;;4.35;56.54
73748;BME280;62056;52.130;5.428;2023-04-06T01:19:07;102010.59;;;4.36;55.61
73748;BME280;62056;52.130;5.428;2023-04-06T01:21:38;102012.19;;;4.37;56.09
73748;BME280;62056;52.130;5.428;2023-04-06T01:24:05;102003.91;;;4.33;55.53
73748;BME280;62056;52.130;5.428;2023-04-06T01:26:32;102004.94;;;4.32;56.17
73748;BME280;62056;52.130;5.428;2023-04-06T01:29:00;102010.78;;;4.34;56.18
73748;BME280;62056;52.130;5.428;2023-04-06T01:31:27;102001.84;;;4.35;56.06
73748;BME280;62056;52.130;5.428;2023-04-06T01:33:54;102004.47;;;4.35;56.68
73748;BME280;62056;52.130;5.428;2023-04-06T01:36:21;102000.03;;;4.36;55.58
73748;BME280;62056;52.130;5.428;2023-04-06T01:38:48;101997.19;;;4.37;54.08
73748;BME280;62056;52.130;5.428;2023-04-06T01:41:15;101992.28;;;4.41;53.88
73748;BME280;62056;52.130;5.428;2023-04-06T01:43:43;101990.84;;;4.45;54.90
73748;BME280;62056;52.130;5.428;2023-04-06T01:46:10;101984.13;;;4.49;54.89
73748;BME280;62056;52.130;5.428;2023-04-06T01:48:37;101977.84;;;4.50;54.06
73748;BME280;62056;52.130;5.428;2023-04-06T01:51:04;101983.47;;;4.54;54.40
73748;BME280;62056;52.130;5.428;2023-04-06T01:53:31;101973.75;;;4.54;53.63
73748;BME280;62056;52.130;5.428;2023-04-06T01:55:58;101969.28;;;4.55;53.36
73748;BME280;62056;52.130;5.428;2023-04-06T01:58:25;101972.50;;;4.57;53.64
73748;BME280;62056;52.130;5.428;2023-04-06T02:00:51;101966.78;;;4.60;54.35
73748;BME280;62056;52.130;5.428;2023-04-06T02:03:18;101962.09;;;4.62;54.23
73748;BME280;62056;52.130;5.428;2023-04-06T02:05:45;101961.88;;;4.63;53.65
73748;BME280;62056;52.130;5.428;2023-04-06T02:08:12;101959.63;;;4.67;55.92
73748;BME280;62056;52.130;5.428;2023-04-06T02:10:39;101951.47;;;4.69;55.02
73748;BME280;62056;52.130;5.428;2023-04-06T02:13:05;101952.31;;;4.69;54.66
73748;BME280;62056;52.130;5.428;2023-04-06T02:15:32;101940.50;;;4.72;55.20
73748;BME280;62056;52.130;5.428;2023-04-06T02:17:59;101944.75;;;4.73;53.49
73748;BME280;62056;52.130;5.428;2023-04-06T02:20:27;101940.06;;;4.75;53.46
73748;BME280;62056;52.130;5.428;2023-04-06T02:22:53;101934.78;;;4.75;53.24
73748;BME280;62056;52.130;5.428;2023-04-06T02:25:20;101935.38;;;4.77;53.69
73748;BME280;62056;52.130;5.428;2023-04-06T02:27:47;101931.53;;;4.79;54.60
73748;BME280;62056;52.130;5.428;2023-04-06T02:30:14;101938.19;;;4.82;54.23
73748;BME280;62056;52.130;5.428;2023-04-06T02:32:40;101935.53;;;4.82;54.38
73748;BME280;62056;52.130;5.428;2023-04-06T02:35:07;101932.69;;;4.83;54.46
73748;BME280;62056;52.130;5.428;2023-04-06T02:37:34;101929.00;;;4.84;54.32
73748;BME280;62056;52.130;5.428;2023-04-06T02:40:01;101929.59;;;4.86;53.98
73748;BME280;62056;52.130;5.428;2023-04-06T02:42:28;101931.22;;;4.88;54.97
73748;BME280;62056;52.130;5.428;2023-04-06T02:44:55;101923.31;;;4.88;53.12
73748;BME280;62056;52.130;5.428;2023-04-06T02:47:22;101914.59;;;4.87;54.49
73748;BME280;62056;52.130;5.428;2023-04-06T02:49:48;101916.00;;;4.90;54.45
73748;BME280;62056;52.130;5.428;2023-04-06T02:52:15;101910.72;;;4.90;54.91
73748;BME280;62056;52.130;5.428;2023-04-06T02:54:44;101914.94;;;4.91;54.96
73748;BME280;62056;52.130;5.428;2023-04-06T02:57:10;101909.69;;;4.91;54.14
73748;BME280;62056;52.130;5.428;2023-04-06T02:59:37;101899.72;;;4.93;54.07
73748;BME280;62056;52.130;5.428;2023-04-06T03:02:04;101904.19;;;4.92;54.59
73748;BME280;62056;52.130;5.428;2023-04-06T03:04:31;101897.88;;;4.93;54.15
73748;BME280;62056;52.130;5.428;2023-04-06T03:06:58;101905.78;;;4.93;54.56
73748;BME280;62056;52.130;5.428;2023-04-06T03:09:26;101899.50;;;4.94;54.22
73748;BME280;62056;52.130;5.428;2023-04-06T03:11:53;101890.56;;;4.95;54.70
73748;BME280;62056;52.130;5.428;2023-04-06T03:14:21;101888.72;;;4.96;54.54
73748;BME280;62056;52.130;5.428;2023-04-06T03:16:49;101904.31;;;4.97;54.52
73748;BME280;62056;52.130;5.428;2023-04-06T03:19:15;101890.13;;;4.98;54.04
73748;BME280;62056;52.130;5.428;2023-04-06T03:21:42;101887.25;;;5.00;54.23
73748;BME280;62056;52.130;5.428;2023-04-06T03:24:37;101891.72;;;4.99;54.36
73748;BME280;62056;52.130;5.428;2023-04-06T03:27:04;101889.66;;;5.01;54.71
73748;BME280;62056;52.130;5.428;2023-04-06T03:29:31;101884.59;;;5.00;54.82
73748;BME280;62056;52.130;5.428;2023-04-06T03:31:58;101880.16;;;5.00;53.94
73748;BME280;62056;52.130;5.428;2023-04-06T03:34:52;101883.59;;;5.01;54.21
73748;BME280;62056;52.130;5.428;2023-04-06T03:37:18;101880.97;;;5.01;54.31
73748;BME280;62056;52.130;5.428;2023-04-06T03:39:45;101875.47;;;5.02;54.05
73748;BME280;62056;52.130;5.428;2023-04-06T03:42:12;101872.84;;;5.02;54.18
73748;BME280;62056;52.130;5.428;2023-04-06T03:44:39;101874.06;;;5.00;54.40
73748;BME280;62056;52.130;5.428;2023-04-06T03:47:05;101870.41;;;5.01;54.76
73748;BME280;62056;52.130;5.428;2023-04-06T03:49:32;101872.84;;;5.02;54.36
73748;BME280;62056;52.130;5.428;2023-04-06T03:51:59;101869.94;;;5.04;54.40
73748;BME280;62056;52.130;5.428;2023-04-06T03:54:26;101868.16;;;5.04;54.56
73748;BME280;62056;52.130;5.428;2023-04-06T03:56:52;101863.44;;;5.06;54.03
73748;BME280;62056;52.130;5.428;2023-04-06T03:59:19;101860.81;;;5.06;53.61
73748;BME280;62056;52.130;5.428;2023-04-06T04:01:46;101866.88;;;5.07;53.21
73748;BME280;62056;52.130;5.428;2023-04-06T04:04:13;101863.22;;;5.08;54.02
73748;BME280;62056;52.130;5.428;2023-04-06T04:06:39;101870.31;;;5.07;54.22
73748;BME280;62056;52.130;5.428;2023-04-06T04:09:06;101864.25;;;5.07;53.77
73748;BME280;62056;52.130;5.428;2023-04-06T04:11:33;101858.19;;;5.06;54.75
73748;BME280;62056;52.130;5.428;2023-04-06T04:13:59;101862.63;;;5.06;55.10
73748;BME280;62056;52.130;5.428;2023-04-06T04:16:26;101856.78;;;5.04;54.19
73748;BME280;62056;52.130;5.428;2023-04-06T04:18:53;101862.88;;;5.04;55.65
73748;BME280;62056;52.130;5.428;2023-04-06T04:21:19;101859.41;;;5.04;54.17
73748;BME280;62056;52.130;5.428;2023-04-06T04:23:46;101865.72;;;5.03;54.47
73748;BME280;62056;52.130;5.428;2023-04-06T04:26:13;101866.53;;;5.03;54.43
73748;BME280;62056;52.130;5.428;2023-04-06T04:28:40;101856.19;;;5.02;54.55
73748;BME280;62056;52.130;5.428;2023-04-06T04:31:06;101866.97;;;5.00;54.39
73748;BME280;62056;52.130;5.428;2023-04-06T04:33:33;101854.59;;;5.01;54.94
73748;BME280;62056;52.130;5.428;2023-04-06T04:36:00;101859.28;;;4.99;54.75
73748;BME280;62056;52.130;5.428;2023-04-06T04:38:26;101861.13;;;4.98;54.65
73748;BME280;62056;52.130;5.428;2023-04-06T04:40:53;101858.72;;;4.97;55.43
73748;BME280;62056;52.130;5.428;2023-04-06T04:43:20;101864.78;;;4.97;55.03
73748;BME280;62056;52.130;5.428;2023-04-06T04:45:46;101857.31;;;4.94;54.95
73748;BME280;62056;52.130;5.428;2023-04-06T04:48:13;101860.97;;;4.93;54.47
73748;BME280;62056;52.130;5.428;2023-04-06T04:50:40;101854.91;;;4.93;54.60
73748;BME280;62056;52.130;5.428;2023-04-06T04:53:07;101859.59;;;4.91;54.85
73748;BME280;62056;52.130;5.428;2023-04-06T04:55:34;101861.44;;;4.90;54.98
73748;BME280;62056;52.130;5.428;2023-04-06T04:58:01;101861.66;;;4.89;55.17
73748;BME280;62056;52.130;5.428;2023-04-06T05:00:28;101866.91;;;4.89;54.91
73748;BME280;62056;52.130;5.428;2023-04-06T05:02:55;101850.31;;;4.88;55.32
73748;BME280;62056;52.130;5.428;2023-04-06T05:05:22;101854.53;;;4.89;55.19
73748;BME280;62056;52.130;5.428;2023-04-06T05:07:49;101848.47;;;4.89;55.07
73748;BME280;62056;52.130;5.428;2023-04-06T05:10:16;101847.69;;;4.88;55.04
73748;BME280;62056;52.130;5.428;2023-04-06T05:12:43;101854.53;;;4.89;55.07
73748;BME280;62056;52.130;5.428;2023-04-06T05:15:09;101848.47;;;4.89;55.56
73748;BME280;62056;52.130;5.428;2023-04-06T05:17:36;101848.47;;;4.89;55.30
73748;BME280;62056;52.130;5.428;2023-04-06T05:20:04;101848.25;;;4.90;55.91
73748;BME280;62056;52.130;5.428;2023-04-06T05:22:31;101845.41;;;4.92;55.43
73748;BME280;62056;52.130;5.428;2023-04-06T05:24:58;101852.28;;;4.93;55.67
73748;BME280;62056;52.130;5.428;2023-04-06T05:27:25;101845.16;;;4.93;55.69
73748;BME280;62056;52.130;5.428;2023-04-06T05:29:51;101850.81;;;4.97;55.68
73748;BME280;62056;52.130;5.428;2023-04-06T05:32:22;101841.84;;;4.98;55.34
73748;BME280;62056;52.130;5.428;2023-04-06T05:34:51;101846.91;;;4.99;55.64
73748;BME280;62056;52.130;5.428;2023-04-06T05:37:17;101845.06;;;5.00;55.71
73748;BME280;62056;52.130;5.428;2023-04-06T05:39:44;101840.38;;;5.02;55.82
73748;BME280;62056;52.130;5.428;2023-04-06T05:42:10;101842.56;;;5.05;55.89
73748;BME280;62056;52.130;5.428;2023-04-06T05:44:37;101837.88;;;5.07;55.87
73748;BME280;62056;52.130;5.428;2023-04-06T05:47:04;101836.41;;;5.11;56.24
73748;BME280;62056;52.130;5.428;2023-04-06T05:49:31;101837.00;;;5.13;56.67
73748;BME280;62056;52.130;5.428;2023-04-06T05:51:58;101828.03;;;5.14;56.17
73748;BME280;62056;52.130;5.428;2023-04-06T05:54:52;101830.00;;;5.19;56.10
73748;BME280;62056;52.130;5.428;2023-04-06T05:57:19;101829.56;;;5.22;56.09
73748;BME280;62056;52.130;5.428;2023-04-06T05:59:46;101831.97;;;5.23;57.20
73748;BME280;62056;52.130;5.428;2023-04-06T06:02:12;101827.28;;;5.25;56.90
73748;BME280;62056;52.130;5.428;2023-04-06T06:04:40;101830.25;;;5.29;56.44
73748;BME280;62056;52.130;5.428;2023-04-06T06:07:07;101829.81;;;5.32;57.02
73748;BME280;62056;52.130;5.428;2023-04-06T06:09:34;101829.91;;;5.37;56.74
73748;BME280;62056;52.130;5.428;2023-04-06T06:12:00;101828.44;;;5.41;57.04
73748;BME280;62056;52.130;5.428;2023-04-06T06:14:27;101828.00;;;5.44;57.33
73748;BME280;62056;52.130;5.428;2023-04-06T06:16:57;101837.88;;;5.49;57.16
73748;BME280;62056;52.130;5.428;2023-04-06T06:19:23;101831.31;;;5.52;57.71
73748;BME280;62056;52.130;5.428;2023-04-06T06:21:50;101831.69;;;5.55;57.69
73748;BME280;62056;52.130;5.428;2023-04-06T06:24:18;101829.63;;;5.57;56.99
73748;BME280;62056;52.130;5.428;2023-04-06T06:26:44;101829.41;;;5.59;57.23
73748;BME280;62056;52.130;5.428;2023-04-06T06:29:11;101822.84;;;5.61;57.44
73748;BME280;62056;52.130;5.428;2023-04-06T06:31:38;101827.66;;;5.64;57.76
73748;BME280;62056;52.130;5.428;2023-04-06T06:34:05;101830.66;;;5.68;57.51
73748;BME280;62056;52.130;5.428;2023-04-06T06:36:33;101820.44;;;5.72;58.25
73748;BME280;62056;52.130;5.428;2023-04-06T06:39:01;101827.22;;;5.79;58.36
73748;BME280;62056;52.130;5.428;2023-04-06T06:41:29;101829.75;;;5.86;58.83
73748;BME280;62056;52.130;5.428;2023-04-06T06:43:56;101820.25;;;5.97;59.07
73748;BME280;62056;52.130;5.428;2023-04-06T06:46:23;101823.69;;;6.09;60.03
73748;BME280;62056;52.130;5.428;2023-04-06T06:48:49;101820.19;;;6.20;60.27
73748;BME280;62056;52.130;5.428;2023-04-06T06:51:16;101823.41;;;6.34;61.08
73748;BME280;62056;52.130;5.428;2023-04-06T06:53:43;101822.34;;;6.47;61.79
73748;BME280;62056;52.130;5.428;2023-04-06T06:56:10;101826.47;;;6.55;61.01
73748;BME280;62056;52.130;5.428;2023-04-06T06:58:37;101827.53;;;6.71;62.91
73748;BME280;62056;52.130;5.428;2023-04-06T07:01:03;101823.50;;;6.80;62.20
73748;BME280;62056;52.130;5.428;2023-04-06T07:03:59;101826.16;;;6.97;62.56
73748;BME280;62056;52.130;5.428;2023-04-06T07:06:26;101821.63;;;7.09;62.01
73748;BME280;62056;52.130;5.428;2023-04-06T07:08:52;101825.81;;;7.22;61.08
73748;BME280;62056;52.130;5.428;2023-04-06T07:11:19;101824.34;;;7.31;62.39
73748;BME280;62056;52.130;5.428;2023-04-06T07:13:46;101817.41;;;7.42;61.90
73748;BME280;62056;52.130;5.428;2023-04-06T07:16:13;101818.84;;;7.49;62.45
73748;BME280;62056;52.130;5.428;2023-04-06T07:18:49;101807.84;;;7.58;62.68
73748;BME280;62056;52.130;5.428;2023-04-06T07:21:17;101811.69;;;7.67;62.52
73748;BME280;62056;52.130;5.428;2023-04-06T07:23:43;101804.63;;;7.73;61.84
73748;BME280;62056;52.130;5.428;2023-04-06T07:26:10;101801.00;;;7.79;62.72
73748;BME280;62056;52.130;5.428;2023-04-06T07:28:37;101802.09;;;7.83;62.20
73748;BME280;62056;52.130;5.428;2023-04-06T07:31:03;101804.28;;;7.86;61.21
73748;BME280;62056;52.130;5.428;2023-04-06T07:33:30;101800.66;;;7.92;60.13
73748;BME280;62056;52.130;5.428;2023-04-06T07:35:57;101809.72;;;7.96;60.73
73748;BME280;62056;52.130;5.428;2023-04-06T07:38:25;101798.63;;;7.99;57.05
73748;BME280;62056;52.130;5.428;2023-04-06T07:40:52;101804.25;;;8.03;55.71
73748;BME280;62056;52.130;5.428;2023-04-06T07:43:20;101802.19;;;8.10;56.79
73748;BME280;62056;52.130;5.428;2023-04-06T07:45:47;101798.84;;;8.15;59.80
73748;BME280;62056;52.130;5.428;2023-04-06T07:48:42;101811.41;;;8.24;61.31
73748;BME280;62056;52.130;5.428;2023-04-06T07:51:09;101796.28;;;8.25;60.49
73748;BME280;62056;52.130;5.428;2023-04-06T07:53:45;101802.69;;;8.29;58.86
73748;BME280;62056;52.130;5.428;2023-04-06T07:56:12;101792.41;;;8.32;59.90
73748;BME280;62056;52.130;5.428;2023-04-06T07:58:39;101796.50;;;8.40;59.95
73748;BME280;62056;52.130;5.428;2023-04-06T08:01:05;101800.59;;;8.48;60.41
73748;BME280;62056;52.130;5.428;2023-04-06T08:03:36;101799.53;;;8.49;58.46
73748;BME280;62056;52.130;5.428;2023-04-06T08:06:03;101801.16;;;8.50;59.57
73748;BME280;62056;52.130;5.428;2023-04-06T08:08:31;101798.53;;;8.55;56.43
73748;BME280;62056;52.130;5.428;2023-04-06T08:10:58;101795.69;;;8.62;58.10
73748;BME280;62056;52.130;5.428;2023-04-06T08:13:28;101800.78;;;8.68;57.67
73748;BME280;62056;52.130;5.428;2023-04-06T08:15:55;101799.78;;;8.75;58.30
73748;BME280;62056;52.130;5.428;2023-04-06T08:18:22;101796.97;;;8.81;57.96
73748;BME280;62056;52.130;5.428;2023-04-06T08:20:48;101797.78;;;8.87;56.33
73748;BME280;62056;52.130;5.428;2023-04-06T08:23:16;101795.75;;;8.94;58.41
73748;BME280;62056;52.130;5.428;2023-04-06T08:25:43;101797.41;;;9.00;57.89
73748;BME280;62056;52.130;5.428;2023-04-06T08:28:09;101798.22;;;9.06;57.46
73748;BME280;62056;52.130;5.428;2023-04-06T08:30:39;101794.56;;;9.12;57.09
73748;BME280;62056;52.130;5.428;2023-04-06T08:33:34;101796.75;;;9.20;57.20
73748;BME280;62056;52.130;5.428;2023-04-06T08:36:10;101794.66;;;9.22;56.89
73748;BME280;62056;52.130;5.428;2023-04-06T08:38:37;101795.25;;;9.29;57.61
73748;BME280;62056;52.130;5.428;2023-04-06T08:41:10;101783.63;;;9.36;54.62
73748;BME280;62056;52.130;5.428;2023-04-06T08:43:47;101784.19;;;9.43;55.66
73748;BME280;62056;52.130;5.428;2023-04-06T08:46:14;101781.03;;;9.46;56.17
73748;BME280;62056;52.130;5.428;2023-04-06T08:48:45;101790.91;;;9.56;56.69
73748;BME280;62056;52.130;5.428;2023-04-06T08:51:14;101790.91;;;9.56;56.52
73748;BME280;62056;52.130;5.428;2023-04-06T08:53:41;101789.34;;;9.60;57.63
73748;BME280;62056;52.130;5.428;2023-04-06T08:56:09;101787.78;;;9.64;55.95
73748;BME280;62056;52.130;5.428;2023-04-06T08:58:39;101783.31;;;9.69;56.51
73748;BME280;62056;52.130;5.428;2023-04-06T09:01:08;101782.22;;;9.70;56.58
73748;BME280;62056;52.130;5.428;2023-04-06T09:03:38;101787.84;;;9.74;54.47
73748;BME280;62056;52.130;5.428;2023-04-06T09:06:08;101794.78;;;9.80;56.67
73748;BME280;62056;52.130;5.428;2023-04-06T09:08:36;101789.78;;;9.89;56.44
73748;BME280;62056;52.130;5.428;2023-04-06T09:11:03;101785.06;;;10.01;56.91
73748;BME280;62056;52.130;5.428;2023-04-06T09:13:30;101791.69;;;10.04;56.37
73748;BME280;62056;52.130;5.428;2023-04-06T09:16:04;101790.66;;;10.05;56.03
73748;BME280;62056;52.130;5.428;2023-04-06T09:19:04;101793.84;;;10.07;54.35
73748;BME280;62056;52.130;5.428;2023-04-06T09:21:31;101788.03;;;10.15;55.77
73748;BME280;62056;52.130;5.428;2023-04-06T09:24:01;101788.09;;;10.25;56.13
73748;BME280;62056;52.130;5.428;2023-04-06T09:26:29;101785.97;;;10.27;55.41
73748;BME280;62056;52.130;5.428;2023-04-06T09:28:58;101787.63;;;10.39;55.77
73748;BME280;62056;52.130;5.428;2023-04-06T09:31:28;101786.03;;;10.43;55.65
73748;BME280;62056;52.130;5.428;2023-04-06T09:33:56;101786.59;;;10.50;54.39
73748;BME280;62056;52.130;5.428;2023-04-06T09:36:33;101786.31;;;10.51;54.42
73748;BME280;62056;52.130;5.428;2023-04-06T09:39:03;101791.91;;;10.60;55.61
73748;BME280;62056;52.130;5.428;2023-04-06T09:41:34;101785.56;;;10.61;55.05
73748;BME280;62056;52.130;5.428;2023-04-06T09:44:02;101779.16;;;10.62;55.31
73748;BME280;62056;52.130;5.428;2023-04-06T09:49:27;101785.28;;;10.68;54.53
73748;BME280;62056;52.130;5.428;2023-04-06T09:51:57;101787.44;;;10.71;54.66
73748;BME280;62056;52.130;5.428;2023-04-06T09:54:28;101792.25;;;10.79;54.03
73748;BME280;62056;52.130;5.428;2023-04-06T10:02:33;101792.78;;;11.02;55.21
73748;BME280;62056;52.130;5.428;2023-04-06T10:05:21;101785.63;;;11.02;55.54
73748;BME280;62056;52.130;5.428;2023-04-06T10:07:50;101784.81;;;11.07;55.61
73748;BME280;62056;52.130;5.428;2023-04-06T10:10:27;101788.00;;;11.14;55.93
73748;BME280;62056;52.130;5.428;2023-04-06T10:12:59;101787.75;;;11.10;55.96
73748;BME280;62056;52.130;5.428;2023-04-06T10:15:30;101794.38;;;11.18;56.36
73748;BME280;62056;52.130;5.428;2023-04-06T10:18:01;101796.50;;;11.16;56.03
73748;BME280;62056;52.130;5.428;2023-04-06T10:21:01;101791.22;;;11.21;56.30
73748;BME280;62056;52.130;5.428;2023-04-06T10:23:59;101793.03;;;11.31;56.52
73748;BME280;62056;52.130;5.428;2023-04-06T10:27:01;101794.63;;;11.27;56.82
73748;BME280;62056;52.130;5.428;2023-04-06T10:29:31;101785.88;;;11.26;57.79
73748;BME280;62056;52.130;5.428;2023-04-06T10:32:06;101791.19;;;11.37;57.90
73748;BME280;62056;52.130;5.428;2023-04-06T10:34:36;101791.97;;;11.37;57.81
73748;BME280;62056;52.130;5.428;2023-04-06T10:37:15;101786.66;;;11.37;57.91
73748;BME280;62056;52.130;5.428;2023-04-06T10:39:52;101787.19;;;11.34;58.44
73748;BME280;62056;52.130;5.428;2023-04-06T10:42:24;101785.88;;;11.16;59.00
73748;BME280;62056;52.130;5.428;2023-04-06T10:44:52;101790.13;;;11.12;60.90
73748;BME280;62056;52.130;5.428;2023-04-06T10:47:18;101791.75;;;11.13;60.60
73748;BME280;62056;52.130;5.428;2023-04-06T10:49:45;101787.19;;;11.03;61.39
73748;BME280;62056;52.130;5.428;2023-04-06T10:52:12;101789.84;;;11.03;61.39
73748;BME280;62056;52.130;5.428;2023-04-06T10:54:42;101786.66;;;10.91;62.64
73748;BME280;62056;52.130;5.428;2023-04-06T10:57:10;101782.38;;;10.85;62.42
73748;BME280;62056;52.130;5.428;2023-04-06T10:59:37;101783.47;;;10.84;62.80
73748;BME280;62056;52.130;5.428;2023-04-06T11:02:07;101781.31;;;10.81;63.49
73748;BME280;62056;52.130;5.428;2023-04-06T11:04:35;101779.19;;;10.83;63.81
73748;BME280;62056;52.130;5.428;2023-04-06T11:07:01;101774.41;;;10.74;63.98
73748;BME280;62056;52.130;5.428;2023-04-06T11:09:29;101777.84;;;10.65;66.50
73748;BME280;62056;52.130;5.428;2023-04-06T11:11:57;101777.03;;;10.64;65.73
73748;BME280;62056;52.130;5.428;2023-04-06T11:14:24;101778.41;;;10.67;65.31
73748;BME280;62056;52.130;5.428;2023-04-06T11:16:53;101775.44;;;10.58;65.94
73748;BME280;62056;52.130;5.428;2023-04-06T11:19:20;101770.63;;;10.60;65.77
73748;BME280;62056;52.130;5.428;2023-04-06T11:21:47;101765.84;;;10.52;66.99
73748;BME280;62056;52.130;5.428;2023-04-06T11:24:18;101766.63;;;10.47;67.30
73748;BME280;62056;52.130;5.428;2023-04-06T11:26:57;101771.66;;;10.39;68.09
73748;BME280;62056;52.130;5.428;2023-04-06T11:29:26;101762.94;;;10.48;67.52
73748;BME280;62056;52.130;5.428;2023-04-06T11:32:04;101762.09;;;10.43;68.30
73748;BME280;62056;52.130;5.428;2023-04-06T11:34:36;101762.38;;;10.46;68.60
73748;BME280;62056;52.130;5.428;2023-04-06T11:37:08;101760.00;;;10.50;69.26
73748;BME280;62056;52.130;5.428;2023-04-06T11:39:40;101756.28;;;10.51;70.22
73748;BME280;62056;52.130;5.428;2023-04-06T11:42:06;101764.78;;;10.48;69.71
73748;BME280;62056;52.130;5.428;2023-04-06T11:47:07;101744.56;;;10.47;69.31
73748;BME280;62056;52.130;5.428;2023-04-06T11:49:37;101745.38;;;10.52;68.55
73748;BME280;62056;52.130;5.428;2023-04-06T11:52:15;101739.25;;;10.52;68.20
73748;BME280;62056;52.130;5.428;2023-04-06T11:54:42;101735.22;;;10.39;68.85
73748;BME280;62056;52.130;5.428;2023-04-06T11:57:09;101735.25;;;10.44;68.71
73748;BME280;62056;52.130;5.428;2023-04-06T11:59:35;101733.91;;;10.52;69.18
73748;BME280;62056;52.130;5.428;2023-04-06T12:02:03;101732.34;;;10.56;68.37
73748;BME280;62056;52.130;5.428;2023-04-06T12:04:30;101740.31;;;10.51;69.42
73748;BME280;62056;52.130;5.428;2023-04-06T12:07:00;101730.75;;;10.60;69.03
73748;BME280;62056;52.130;5.428;2023-04-06T12:09:27;101735.28;;;10.60;68.80
73748;BME280;62056;52.130;5.428;2023-04-06T12:11:54;101729.69;;;10.56;69.85
73748;BME280;62056;52.130;5.428;2023-04-06T12:14:22;101731.84;;;10.69;69.34
73748;BME280;62056;52.130;5.428;2023-04-06T12:16:49;101728.91;;;10.66;69.63
73748;BME280;62056;52.130;5.428;2023-04-06T12:19:16;101731.31;;;10.67;69.63
73748;BME280;62056;52.130;5.428;2023-04-06T12:21:42;101728.91;;;10.76;69.57
73748;BME280;62056;52.130;5.428;2023-04-06T12:24:14;101717.75;;;10.79;68.66
73748;BME280;62056;52.130;5.428;2023-04-06T12:26:42;101717.72;;;10.74;69.39
73748;BME280;62056;52.130;5.428;2023-04-06T12:29:09;101718.53;;;10.74;69.91
73748;BME280;62056;52.130;5.428;2023-04-06T12:31:37;101720.13;;;10.81;69.48
73748;BME280;62056;52.130;5.428;2023-04-06T12:34:34;101720.41;;;10.79;69.95
73748;BME280;62056;52.130;5.428;2023-04-06T12:37:02;101720.94;;;10.81;69.31
73748;BME280;62056;52.130;5.428;2023-04-06T12:39:29;101718.53;;;10.80;69.75
73748;BME280;62056;52.130;5.428;2023-04-06T12:41:56;101708.97;;;10.84;69.20
73748;BME280;62056;52.130;5.428;2023-04-06T12:44:50;101710.00;;;10.83;68.99
73748;BME280;62056;52.130;5.428;2023-04-06T12:47:17;101711.38;;;10.75;69.50
73748;BME280;62056;52.130;5.428;2023-04-06T12:49:44;101714.28;;;10.73;69.02
73748;BME280;62056;52.130;5.428;2023-04-06T12:52:11;101705.22;;;10.74;69.33
73748;BME280;62056;52.130;5.428;2023-04-06T12:54:38;101698.56;;;10.72;70.04
73748;BME280;62056;52.130;5.428;2023-04-06T12:57:04;101707.09;;;10.69;69.34
73748;BME280;62056;52.130;5.428;2023-04-06T12:59:31;101701.50;;;10.70;69.56
73748;BME280;62056;52.130;5.428;2023-04-06T13:02:03;101701.50;;;10.76;69.59
73748;BME280;62056;52.130;5.428;2023-04-06T13:04:30;101693.00;;;10.73;69.89
73748;BME280;62056;52.130;5.428;2023-04-06T13:06:56;101689.78;;;10.77;69.49
73748;BME280;62056;52.130;5.428;2023-04-06T13:09:23;101690.09;;;10.75;70.15
73748;BME280;62056;52.130;5.428;2023-04-06T13:11:50;101687.13;;;10.77;69.59
73748;BME280;62056;52.130;5.428;2023-04-06T13:14:17;101690.84;;;10.81;69.63
73748;BME280;62056;52.130;5.428;2023-04-06T13:16:46;101684.47;;;10.77;70.07
73748;BME280;62056;52.130;5.428;2023-04-06T13:19:13;101681.53;;;10.83;69.73